createdAt,value
2019-04-29T00:01:21.674Z,5.94
2019-04-29T00:04:09.945Z,6.13
2019-04-29T00:06:58.783Z,5.83
2019-04-29T00:09:47.051Z,5.93
2019-04-29T00:12:35.916Z,5.86
2019-04-29T00:16:01.357Z,5.82
2019-04-29T00:19:10.622Z,6.09
2019-04-29T00:21:59.118Z,6.01
2019-04-29T00:24:46.783Z,6.20
2019-04-29T00:27:34.740Z,6.47
2019-04-29T00:30:22.575Z,6.80
2019-04-29T00:33:10.864Z,6.86
2019-04-29T00:35:58.884Z,6.89
2019-04-29T00:39:08.186Z,6.84
2019-04-29T00:42:14.213Z,7.11
2019-04-29T00:45:02.084Z,7.13
2019-04-29T00:47:50.024Z,7.22
2019-04-29T00:50:38.444Z,7.23
2019-04-29T00:53:26.877Z,7.29
2019-04-29T00:56:15.100Z,7.39
2019-04-29T00:59:04.004Z,7.25
2019-04-29T01:01:53.419Z,7.19
2019-04-29T01:04:42.347Z,7.22
2019-04-29T01:07:30.904Z,7.21
2019-04-29T01:10:19.450Z,7.15
2019-04-29T01:13:08.005Z,7.21
2019-04-29T01:15:56.742Z,7.15
2019-04-29T01:18:45.464Z,7.12
2019-04-29T01:21:33.882Z,7.02
2019-04-29T01:24:22.498Z,6.68
2019-04-29T01:27:18.975Z,6.23
2019-04-29T01:30:08.360Z,6.32
2019-04-29T01:32:59.739Z,6.52
2019-04-29T01:35:49.524Z,6.56
2019-04-29T01:38:37.305Z,6.55
2019-04-29T01:41:29.983Z,6.37
2019-04-29T01:44:18.577Z,5.90
2019-04-29T01:47:07.365Z,5.71
2019-04-29T01:49:55.548Z,5.17
2019-04-29T01:52:44.036Z,4.94
2019-04-29T01:55:32.094Z,5.36
2019-04-29T01:58:20.502Z,5.69
2019-04-29T02:01:08.680Z,5.85
2019-04-29T02:03:57.226Z,6.12
2019-04-29T02:06:45.424Z,6.21
2019-04-29T02:09:41.523Z,5.92
2019-04-29T02:12:29.616Z,6.16
2019-04-29T02:15:18.312Z,6.12
2019-04-29T02:18:06.968Z,6.14
2019-04-29T02:20:55.136Z,6.28
2019-04-29T02:23:50.788Z,6.36
2019-04-29T02:26:38.500Z,6.28
2019-04-29T02:29:26.998Z,6.33
2019-04-29T02:32:16.066Z,6.24
2019-04-29T02:35:04.673Z,6.09
2019-04-29T02:37:52.575Z,6.19
2019-04-29T02:40:53.582Z,6.18
2019-04-29T02:43:43.194Z,6.29
2019-04-29T02:46:31.699Z,6.06
2019-04-29T02:49:21.043Z,5.78
2019-04-29T02:52:09.175Z,5.58
2019-04-29T02:54:59.732Z,5.25
2019-04-29T02:58:00.171Z,5.13
2019-04-29T03:01:10.041Z,5.25
2019-04-29T03:04:14.258Z,4.82
2019-04-29T03:07:03.084Z,4.78
2019-04-29T03:09:51.306Z,4.78
2019-04-29T03:12:39.905Z,4.83
2019-04-29T03:15:33.331Z,4.63
2019-04-29T03:18:23.510Z,4.44
2019-04-29T03:21:20.378Z,4.71
2019-04-29T03:24:08.794Z,4.87
2019-04-29T03:26:56.570Z,4.73
2019-04-29T03:29:45.208Z,4.95
2019-04-29T03:32:33.785Z,5.17
2019-04-29T03:35:21.972Z,5.19
2019-04-29T03:38:10.419Z,5.34
2019-04-29T03:40:58.976Z,5.59
2019-04-29T03:43:47.515Z,5.88
2019-04-29T03:46:35.829Z,5.98
2019-04-29T03:49:24.340Z,6.17
2019-04-29T03:52:12.407Z,6.24
2019-04-29T03:55:00.005Z,6.26
2019-04-29T03:57:48.048Z,6.26
2019-04-29T04:00:36.642Z,6.21
2019-04-29T04:03:50.033Z,6.29
2019-04-29T04:06:43.234Z,6.44
2019-04-29T04:09:33.036Z,6.60
2019-04-29T04:12:21.043Z,6.81
2019-04-29T04:15:10.334Z,7.10
2019-04-29T04:18:12.910Z,7.52
2019-04-29T04:21:01.589Z,7.82
2019-04-29T04:23:50.287Z,7.98
2019-04-29T04:26:38.856Z,8.11
2019-04-29T04:29:27.000Z,8.06
2019-04-29T04:32:15.881Z,8.10
2019-04-29T04:35:04.601Z,7.95
2019-04-29T04:37:52.680Z,7.82
2019-04-29T04:40:45.367Z,7.73
2019-04-29T04:43:36.107Z,7.80
2019-04-29T04:46:24.330Z,7.80
2019-04-29T04:49:15.778Z,7.78
2019-04-29T04:52:02.465Z,7.98
2019-04-29T04:54:53.131Z,7.97
2019-04-29T04:57:41.550Z,8.09
2019-04-29T05:00:31.680Z,8.37
2019-04-29T05:03:20.064Z,8.53
2019-04-29T05:06:08.610Z,8.68
2019-04-29T05:08:56.748Z,8.45
2019-04-29T05:11:45.287Z,8.55
2019-04-29T05:14:41.322Z,7.82
2019-04-29T05:17:29.709Z,7.83
2019-04-29T05:20:18.278Z,8.05
2019-04-29T05:23:06.351Z,8.29
2019-04-29T05:25:56.912Z,8.47
2019-04-29T05:28:45.187Z,8.84
2019-04-29T05:31:33.720Z,9.26
2019-04-29T05:34:23.827Z,9.66
2019-04-29T05:37:19.235Z,9.49
2019-04-29T05:40:07.434Z,9.72
2019-04-29T05:42:55.952Z,9.47
2019-04-29T05:45:54.036Z,9.39
2019-04-29T05:48:42.231Z,9.92
2019-04-29T05:51:36.746Z,10.08
2019-04-29T05:54:26.943Z,10.60
2019-04-29T05:57:15.651Z,11.02
2019-04-29T06:00:04.632Z,10.88
2019-04-29T06:02:52.998Z,11.17
2019-04-29T06:05:41.381Z,11.46
2019-04-29T06:08:29.731Z,11.50
2019-04-29T06:11:18.849Z,11.36
2019-04-29T06:14:07.356Z,11.50
2019-04-29T06:16:57.600Z,11.59
2019-04-29T06:19:45.204Z,12.06
2019-04-29T06:22:33.403Z,11.71
2019-04-29T06:25:21.662Z,12.16
2019-04-29T06:28:09.842Z,12.13
2019-04-29T06:30:58.674Z,12.43
2019-04-29T06:33:47.099Z,12.90
2019-04-29T06:36:34.921Z,13.04
2019-04-29T06:39:23.439Z,13.26
2019-04-29T06:42:15.575Z,13.26
2019-04-29T06:45:02.193Z,13.49
2019-04-29T06:47:50.909Z,13.82
2019-04-29T06:50:40.840Z,14.01
2019-04-29T06:53:28.759Z,14.29
2019-04-29T06:56:17.220Z,14.56
2019-04-29T06:59:07.516Z,14.43
2019-04-29T07:01:55.268Z,14.71
2019-04-29T07:04:43.399Z,15.08
2019-04-29T07:07:34.791Z,15.37
2019-04-29T07:10:26.961Z,14.61
2019-04-29T07:13:13.815Z,14.88
2019-04-29T07:16:02.915Z,14.98
2019-04-29T07:18:53.552Z,14.72
2019-04-29T07:21:41.923Z,14.63
2019-04-29T07:24:29.421Z,15.18
2019-04-29T07:27:17.012Z,15.59
2019-04-29T07:30:08.017Z,15.58
2019-04-29T07:32:56.070Z,15.62
2019-04-29T07:35:47.995Z,15.78
2019-04-29T07:38:41.706Z,16.00
2019-04-29T07:41:25.695Z,16.57
2019-04-29T07:44:18.256Z,15.95
2019-04-29T07:47:03.237Z,16.35
2019-04-29T07:49:53.027Z,16.16
2019-04-29T07:52:41.115Z,16.44
2019-04-29T07:55:30.862Z,16.63
2019-04-29T07:58:18.520Z,16.79
2019-04-29T08:01:06.875Z,17.64
2019-04-29T08:03:56.119Z,18.41
2019-04-29T08:06:44.908Z,18.08
2019-04-29T08:09:33.526Z,17.65
2019-04-29T08:12:23.756Z,17.90
2019-04-29T08:15:12.336Z,17.56
2019-04-29T08:18:06.612Z,18.54
2019-04-29T08:20:50.296Z,18.56
2019-04-29T08:23:42.265Z,18.62
2019-04-29T08:26:28.543Z,18.28
2019-04-29T08:29:17.173Z,18.58
2019-04-29T08:32:05.659Z,18.87
2019-04-29T08:34:57.329Z,19.27
2019-04-29T08:37:42.799Z,19.76
2019-04-29T08:40:34.016Z,20.19
2019-04-29T08:43:42.089Z,20.26
2019-04-29T08:46:51.671Z,20.15
2019-04-29T08:49:38.482Z,20.00
2019-04-29T08:52:27.021Z,20.42
2019-04-29T08:55:15.373Z,20.32
2019-04-29T08:58:06.922Z,20.30
2019-04-29T09:00:55.836Z,19.89
2019-04-29T09:03:43.374Z,19.93
2019-04-29T09:06:32.545Z,20.26
2019-04-29T09:09:29.306Z,20.44
2019-04-29T09:12:11.784Z,20.17
2019-04-29T09:14:59.558Z,20.49
2019-04-29T09:17:47.367Z,20.75
2019-04-29T09:20:35.984Z,20.41
2019-04-29T09:23:26.613Z,20.32
2019-04-29T09:26:24.545Z,20.42
2019-04-29T09:29:31.429Z,20.55
2019-04-29T09:32:19.348Z,21.12
2019-04-29T09:35:07.911Z,21.33
2019-04-29T09:37:58.402Z,21.24
2019-04-29T09:40:54.579Z,21.54
2019-04-29T09:43:52.130Z,21.72
2019-04-29T09:46:39.892Z,22.11
2019-04-29T09:49:27.961Z,21.92
2019-04-29T09:52:16.615Z,22.08
2019-04-29T09:55:05.852Z,21.95
2019-04-29T09:57:54.824Z,22.06
2019-04-29T10:01:02.077Z,22.24
2019-04-29T10:04:11.520Z,22.65
2019-04-29T10:06:59.941Z,22.39
2019-04-29T10:09:56.801Z,22.14
2019-04-29T10:12:38.605Z,22.72
2019-04-29T10:15:35.802Z,22.52
2019-04-29T10:18:29.756Z,22.39
2019-04-29T10:21:21.368Z,22.43
2019-04-29T10:24:07.735Z,22.74
2019-04-29T10:26:55.780Z,23.20
2019-04-29T10:29:46.239Z,23.52
2019-04-29T10:32:37.684Z,23.15
2019-04-29T10:35:23.170Z,22.94
2019-04-29T10:38:11.696Z,22.94
2019-04-29T10:41:12.794Z,23.08
2019-04-29T10:44:25.842Z,23.22
2019-04-29T10:47:31.052Z,23.50
2019-04-29T10:50:26.213Z,23.89
2019-04-29T10:53:15.655Z,22.75
2019-04-29T10:56:05.736Z,22.56
2019-04-29T10:58:53.105Z,22.74
2019-04-29T11:02:09.397Z,22.94
2019-04-29T11:04:57.564Z,22.95
2019-04-29T11:07:45.641Z,23.06
2019-04-29T11:10:33.956Z,22.91
2019-04-29T11:13:22.524Z,23.21
2019-04-29T11:16:12.607Z,23.75
2019-04-29T11:19:05.168Z,23.27
2019-04-29T11:21:50.468Z,23.44
2019-04-29T11:25:06.392Z,23.85
2019-04-29T11:27:56.747Z,24.10
2019-04-29T11:30:44.228Z,24.29
2019-04-29T11:33:51.640Z,24.00
2019-04-29T11:36:43.955Z,23.86
2019-04-29T11:39:29.840Z,24.07
2019-04-29T11:42:18.917Z,24.30
2019-04-29T11:45:09.582Z,24.62
2019-04-29T11:47:58.071Z,24.64
2019-04-29T11:50:54.945Z,24.62
2019-04-29T11:53:41.426Z,24.11
2019-04-29T11:56:30.330Z,24.26
2019-04-29T11:59:37.104Z,24.59
2019-04-29T12:02:47.848Z,24.78
2019-04-29T12:05:44.893Z,24.95
2019-04-29T12:08:33.044Z,25.22
2019-04-29T12:11:22.717Z,23.99
2019-04-29T12:14:39.150Z,24.34
2019-04-29T12:17:31.577Z,24.87
2019-04-29T12:20:28.314Z,25.45
2019-04-29T12:23:00.425Z,25.30
2019-04-29T12:25:30.645Z,25.40
2019-04-29T12:28:01.977Z,24.91
2019-04-29T12:30:36.392Z,24.21
2019-04-29T12:33:37.008Z,23.61
2019-04-29T12:36:11.137Z,24.10
2019-04-29T12:39:08.672Z,24.83
2019-04-29T12:41:51.341Z,24.83
2019-04-29T12:44:45.741Z,25.13
2019-04-29T12:47:26.860Z,25.58
2019-04-29T12:49:53.844Z,24.87
2019-04-29T12:52:23.670Z,25.39
2019-04-29T12:54:53.036Z,25.71
2019-04-29T12:57:23.419Z,25.95
2019-04-29T12:59:54.652Z,26.56
2019-04-29T13:02:55.578Z,26.60
2019-04-29T13:05:58.832Z,26.90
2019-04-29T13:08:35.522Z,26.16
2019-04-29T13:11:06.266Z,26.22
2019-04-29T13:13:35.606Z,25.61
2019-04-29T13:16:26.978Z,24.41
2019-04-29T13:19:12.257Z,24.11
2019-04-29T13:21:39.023Z,23.49
2019-04-29T13:24:21.799Z,23.79
2019-04-29T13:26:42.234Z,23.45
2019-04-29T13:29:08.879Z,23.92
2019-04-29T13:31:39.200Z,24.11
2019-04-29T13:34:23.602Z,23.56
2019-04-29T13:36:41.669Z,23.41
2019-04-29T13:39:10.995Z,24.09
2019-04-29T13:41:57.301Z,24.45
2019-04-29T13:44:12.076Z,24.10
2019-04-29T13:47:12.411Z,24.53
2019-04-29T13:49:49.788Z,25.28
2019-04-29T13:52:22.374Z,24.96
2019-04-29T13:54:51.965Z,25.24
2019-04-29T13:57:23.079Z,24.69
2019-04-29T14:00:10.313Z,25.28
2019-04-29T14:02:43.406Z,25.46
2019-04-29T14:05:14.024Z,25.75
2019-04-29T14:07:43.352Z,25.49
2019-04-29T14:10:14.928Z,25.77
2019-04-29T14:12:48.758Z,26.85
2019-04-29T14:15:15.213Z,26.88
2019-04-29T14:17:44.617Z,27.01
2019-04-29T14:20:17.476Z,27.34
2019-04-29T14:22:49.384Z,27.58
2019-04-29T14:25:18.701Z,27.81
2019-04-29T14:27:48.085Z,27.40
2019-04-29T14:30:20.969Z,27.71
2019-04-29T14:32:54.078Z,27.80
2019-04-29T14:35:51.583Z,26.77
2019-04-29T14:38:24.120Z,25.93
2019-04-29T14:40:51.974Z,26.19
2019-04-29T14:43:58.251Z,26.43
2019-04-29T14:46:55.935Z,26.83
2019-04-29T14:49:26.535Z,27.77
2019-04-29T14:51:55.842Z,27.24
2019-04-29T14:54:25.166Z,27.84
2019-04-29T14:56:55.033Z,28.64
2019-04-29T14:59:24.657Z,28.81
2019-04-29T15:01:59.157Z,29.01
2019-04-29T15:04:32.588Z,30.10
2019-04-29T15:07:01.956Z,29.68
2019-04-29T15:09:31.424Z,27.19
2019-04-29T15:12:23.963Z,27.52
2019-04-29T15:15:15.137Z,27.65
2019-04-29T15:18:15.589Z,24.96
2019-04-29T15:20:45.959Z,23.27
2019-04-29T15:23:27.924Z,22.70
2019-04-29T15:25:46.279Z,22.10
2019-04-29T15:28:18.718Z,21.74
2019-04-29T15:30:46.988Z,21.56
2019-04-29T15:33:16.334Z,21.17
2019-04-29T15:35:45.671Z,20.75
2019-04-29T15:38:15.456Z,20.36
2019-04-29T15:40:44.886Z,20.32
2019-04-29T15:43:17.845Z,20.00
2019-04-29T15:45:45.211Z,20.05
2019-04-29T15:48:15.071Z,20.02
2019-04-29T15:50:44.454Z,20.01
2019-04-29T15:53:14.240Z,19.89
2019-04-29T15:55:43.564Z,20.01
2019-04-29T15:58:12.918Z,20.08
2019-04-29T16:00:42.306Z,20.15
2019-04-29T16:03:12.720Z,20.02
2019-04-29T16:06:21.036Z,19.84
2019-04-29T16:08:59.406Z,19.91
2019-04-29T16:12:14.043Z,19.64
2019-04-29T16:14:36.852Z,19.46
2019-04-29T16:17:06.167Z,19.31
2019-04-29T16:19:35.550Z,19.23
2019-04-29T16:22:05.096Z,19.13
2019-04-29T16:24:38.403Z,19.19
2019-04-29T16:27:08.603Z,19.27
2019-04-29T16:29:36.361Z,19.07
2019-04-29T16:32:08.225Z,18.98
2019-04-29T16:34:45.149Z,18.79
2019-04-29T16:37:09.099Z,18.69
2019-04-29T16:39:38.433Z,18.75
2019-04-29T16:42:25.235Z,18.69
2019-04-29T16:44:54.888Z,18.65
2019-04-29T16:47:24.360Z,18.65
2019-04-29T16:49:57.558Z,18.51
2019-04-29T16:52:24.672Z,18.43
2019-04-29T16:54:59.122Z,18.27
2019-04-29T16:57:25.551Z,18.25
2019-04-29T16:59:54.972Z,18.26
2019-04-29T17:02:24.908Z,18.15
2019-04-29T17:04:54.344Z,17.93
2019-04-29T17:07:23.673Z,17.85
2019-04-29T17:10:10.565Z,17.82
2019-04-29T17:12:46.980Z,17.69
2019-04-29T17:15:25.242Z,17.42
2019-04-29T17:17:50.616Z,17.38
2019-04-29T17:20:20.049Z,17.37
2019-04-29T17:22:50.419Z,17.32
2019-04-29T17:25:19.762Z,17.26
2019-04-29T17:28:11.894Z,17.21
2019-04-29T17:31:13.451Z,17.02
2019-04-29T17:34:00.539Z,16.66
2019-04-29T17:36:30.421Z,16.51
2019-04-29T17:38:59.754Z,16.40
2019-04-29T17:41:29.143Z,16.27
2019-04-29T17:44:27.201Z,16.05
2019-04-29T17:47:21.951Z,15.94
2019-04-29T17:50:30.396Z,15.89
2019-04-29T17:52:57.052Z,15.71
2019-04-29T17:55:38.744Z,15.54
2019-04-29T17:58:11.943Z,15.38
2019-04-29T18:01:02.587Z,15.37
2019-04-29T18:03:50.159Z,15.38
2019-04-29T18:06:28.104Z,15.40
2019-04-29T18:09:29.418Z,15.22
2019-04-29T18:12:11.634Z,15.06
2019-04-29T18:14:44.923Z,15.02
2019-04-29T18:20:44.861Z,14.85
2019-04-29T18:23:37.682Z,14.57
2019-04-29T18:26:38.354Z,14.43
2019-04-29T18:29:20.403Z,14.37
2019-04-29T18:32:05.214Z,14.42
2019-04-29T18:34:43.100Z,14.40
2019-04-29T18:37:24.854Z,14.29
2019-04-29T18:39:57.770Z,13.44
2019-04-29T18:42:43.158Z,13.31
2019-04-29T18:45:09.009Z,13.19
2019-04-29T18:47:38.980Z,13.20
2019-04-29T18:50:09.414Z,13.24
2019-04-29T18:52:39.084Z,13.31
2019-04-29T18:55:08.707Z,12.95
2019-04-29T18:57:38.700Z,13.05
2019-04-29T19:00:11.989Z,13.04
2019-04-29T19:02:47.398Z,13.19
2019-04-29T19:05:32.236Z,13.24
2019-04-29T19:08:11.391Z,12.90
2019-04-29T19:10:34.410Z,12.83
2019-04-29T19:13:07.119Z,12.68
2019-04-29T19:15:35.360Z,12.88
2019-04-29T19:18:07.609Z,12.69
2019-04-29T19:20:35.989Z,12.66
2019-04-29T19:23:09.946Z,12.76
2019-04-29T19:25:41.417Z,12.69
2019-04-29T19:28:14.353Z,12.66
2019-04-29T19:30:40.602Z,12.53
2019-04-29T19:33:10.313Z,12.51
2019-04-29T19:35:41.219Z,12.26
2019-04-29T19:38:12.382Z,12.35
2019-04-29T19:40:42.742Z,12.27
2019-04-29T19:43:15.376Z,12.26
2019-04-29T19:45:44.761Z,12.31
2019-04-29T19:48:16.130Z,12.24
2019-04-29T19:50:51.679Z,12.31
2019-04-29T19:53:18.623Z,12.34
2019-04-29T19:56:01.266Z,12.29
2019-04-29T19:58:28.416Z,12.36
2019-04-29T20:00:52.256Z,12.30
2019-04-29T20:03:26.623Z,12.21
2019-04-29T20:06:07.949Z,12.12
2019-04-29T20:08:50.178Z,12.06
2019-04-29T20:11:11.578Z,11.82
2019-04-29T20:13:33.702Z,12.01
2019-04-29T20:16:42.637Z,12.05
2019-04-29T20:19:21.345Z,11.78
2019-04-29T20:21:51.508Z,11.02
2019-04-29T20:24:23.497Z,11.14
2019-04-29T20:26:52.283Z,11.29
2019-04-29T20:29:27.280Z,11.13
2019-04-29T20:31:56.208Z,11.23
2019-04-29T20:34:27.956Z,11.37
2019-04-29T20:36:55.830Z,11.47
2019-04-29T20:39:26.233Z,11.59
2019-04-29T20:41:56.147Z,11.13
2019-04-29T20:44:25.910Z,10.41
2019-04-29T20:47:15.764Z,10.43
2019-04-29T20:49:30.926Z,10.49
2019-04-29T20:52:05.655Z,10.74
2019-04-29T20:54:35.764Z,10.87
2019-04-29T20:57:12.030Z,10.97
2019-04-29T20:59:36.237Z,11.10
2019-04-29T21:02:12.441Z,11.01
2019-04-29T21:04:45.858Z,11.04
2019-04-29T21:07:09.422Z,10.89
2019-04-29T21:09:39.251Z,10.84
2019-04-29T21:12:20.621Z,11.00
2019-04-29T21:14:53.644Z,10.57
2019-04-29T21:17:29.413Z,9.81
2019-04-29T21:19:54.782Z,9.81
2019-04-29T21:22:26.029Z,9.99
2019-04-29T21:24:55.486Z,10.26
2019-04-29T21:27:26.007Z,10.45
2019-04-29T21:29:55.545Z,10.53
2019-04-29T21:32:25.920Z,10.64
2019-04-29T21:35:14.484Z,10.71
2019-04-29T21:37:51.939Z,10.63
2019-04-29T21:40:29.387Z,10.47
2019-04-29T21:43:13.354Z,10.00
2019-04-29T21:45:39.927Z,9.59
2019-04-29T21:48:07.942Z,9.79
2019-04-29T21:50:38.127Z,10.03
2019-04-29T21:53:07.647Z,10.15
2019-04-29T21:55:36.969Z,10.28
2019-04-29T21:58:06.296Z,10.32
2019-04-29T22:00:37.418Z,10.40
2019-04-29T22:03:07.019Z,10.26
2019-04-29T22:05:36.860Z,9.80
2019-04-29T22:08:06.270Z,9.51
2019-04-29T22:10:36.801Z,9.78
2019-04-29T22:13:06.360Z,9.89
2019-04-29T22:15:39.019Z,9.98
2019-04-29T22:18:13.501Z,10.15
2019-04-29T22:20:42.247Z,10.21
2019-04-29T22:23:13.224Z,10.24
2019-04-29T22:25:41.155Z,10.30
2019-04-29T22:28:15.885Z,10.34
2019-04-29T22:30:45.268Z,10.00
2019-04-29T22:33:15.395Z,9.96
2019-04-29T22:35:45.261Z,9.94
2019-04-29T22:38:16.713Z,9.78
2019-04-29T22:40:46.199Z,9.37
2019-04-29T22:43:25.254Z,9.41
2019-04-29T22:45:54.476Z,9.58
2019-04-29T22:48:25.024Z,9.85
2019-04-29T22:50:55.626Z,9.86
2019-04-29T22:53:25.308Z,9.91
2019-04-29T22:55:57.807Z,9.80
2019-04-29T22:58:27.236Z,9.70
2019-04-29T23:00:56.555Z,9.74
2019-04-29T23:03:25.887Z,9.53
2019-04-29T23:05:55.929Z,9.59
2019-04-29T23:08:29.702Z,9.16
2019-04-29T23:10:59.870Z,8.99
2019-04-29T23:13:31.145Z,8.86
2019-04-29T23:16:02.093Z,8.65
2019-04-29T23:18:41.055Z,8.27
2019-04-29T23:21:20.739Z,8.08
2019-04-29T23:23:55.162Z,8.36
2019-04-29T23:26:24.970Z,8.25
2019-04-29T23:28:55.461Z,8.52
2019-04-29T23:31:27.077Z,8.81
2019-04-29T23:33:56.841Z,8.67
2019-04-29T23:36:26.200Z,8.76
2019-04-29T23:38:56.681Z,8.88
2019-04-29T23:41:32.850Z,8.87
2019-04-29T23:43:59.870Z,8.70
2019-04-29T23:46:29.740Z,8.12
2019-04-29T23:49:03.179Z,7.84
2019-04-29T23:51:34.276Z,7.81
2019-04-29T23:54:05.816Z,7.77
2019-04-29T23:56:38.465Z,7.73
2019-04-29T23:59:18.487Z,8.06
